Atwater, New York
Current Conditions -  °F | °C
As of 6:56 PM on Sunday 25 Jan 2015 (Local Time) from KITH Reporting Station
Clear Clear  
Wind Chill: -2°   Ceiling: Unl
Heat Index:   Visibility: 10mi
Dew Point:   Wind: 6mph
Humidity: 80%   Direction: 40°NE
Pressure: 29.96"   Gusts: NA
Location:  42.6734°N, 76.6263°W
Report Text: KITH 252356Z 04005KT 10SM CLR M13/M16 A2996 RMK AO2 51022 60000 T11331161 11072 21133 SLP167
Loading
Personal Weather Stations






























Interactive Weather Map New forecast layout! Learn more

10-Day Weather Forecast

Advertisements
Track Severe Weather on mobile